Terminal Aerodrome Forecast
Issued by NWS

Home | Current Version | Previous Version | Graphics & Text | Print | Product List | Glossary On
Versions: 1 2 3 4 5 6 7 8 9 10 11 12 13
000
FTUS43 KICT 011133
TAFHUT
TAF
KHUT 011133Z 0112/0212 16010KT P6SM BKN250
     FM011700 18015G25KT P6SM BKN250
     FM020000 16012KT P6SM SCT080 BKN150=

USA.gov is the U.S. government's official web portal to all federal, state and local government web resources and services.